createdAt,value
2019-04-16T00:01:13.947Z,7.30
2019-04-16T00:04:11.854Z,6.30
2019-04-16T00:07:17.495Z,6.60
2019-04-16T00:10:37.055Z,6.07
2019-04-16T00:13:31.244Z,7.30
2019-04-16T00:16:19.192Z,6.37
2019-04-16T00:19:06.912Z,6.67
2019-04-16T00:22:03.790Z,6.50
2019-04-16T00:24:54.417Z,6.93
2019-04-16T00:27:42.249Z,7.40
2019-04-16T00:30:29.632Z,7.10
2019-04-16T00:33:17.588Z,7.50
2019-04-16T00:36:05.373Z,6.80
2019-04-16T00:38:54.145Z,6.80
2019-04-16T00:41:43.144Z,6.40
2019-04-16T00:44:30.680Z,6.50
2019-04-16T00:47:18.357Z,6.53
2019-04-16T00:50:12.855Z,6.50
2019-04-16T00:53:08.059Z,6.83
2019-04-16T00:55:55.522Z,6.63
2019-04-16T00:58:42.731Z,6.57
2019-04-16T01:01:30.923Z,6.93
2019-04-16T01:04:18.498Z,6.97
2019-04-16T01:07:06.448Z,6.90
2019-04-16T01:09:54.254Z,7.03
2019-04-16T01:12:42.648Z,7.60
2019-04-16T01:15:32.079Z,7.30
2019-04-16T01:18:19.265Z,6.83
2019-04-16T01:21:07.645Z,6.00
2019-04-16T01:23:56.162Z,6.70
2019-04-16T01:26:45.012Z,7.40
2019-04-16T01:29:33.963Z,6.80
2019-04-16T01:32:42.811Z,6.10
2019-04-16T01:35:51.511Z,6.70
2019-04-16T01:39:15.173Z,6.90
2019-04-16T01:41:50.306Z,6.73
2019-04-16T01:44:38.226Z,6.27
2019-04-16T01:47:26.202Z,5.80
2019-04-16T01:53:09.240Z,7.67
2019-04-16T01:55:57.748Z,8.40
2019-04-16T01:58:46.333Z,6.77
2019-04-16T02:01:34.303Z,7.93
2019-04-16T02:04:22.153Z,6.87
2019-04-16T02:07:09.951Z,7.60
2019-04-16T02:09:57.062Z,6.17
2019-04-16T02:12:45.343Z,6.40
2019-04-16T02:15:33.001Z,5.53
2019-04-16T02:18:20.786Z,7.00
2019-04-16T02:21:10.723Z,6.43
2019-04-16T02:23:57.939Z,6.70
2019-04-16T02:26:45.845Z,7.03
2019-04-16T02:29:33.147Z,6.60
2019-04-16T02:32:21.106Z,6.87
2019-04-16T02:35:09.056Z,7.00
2019-04-16T02:37:56.787Z,6.50
2019-04-16T02:40:51.380Z,7.07
2019-04-16T02:43:39.558Z,6.77
2019-04-16T02:46:22.914Z,6.53
2019-04-16T02:49:10.897Z,8.03
2019-04-16T02:52:18.514Z,7.40
2019-04-16T02:55:25.213Z,7.33
2019-04-16T02:58:17.548Z,6.70
2019-04-16T03:01:20.403Z,6.83
2019-04-16T03:04:11.887Z,5.87
2019-04-16T03:07:02.902Z,6.97
2019-04-16T03:10:00.694Z,6.70
2019-04-16T03:12:39.046Z,7.17
2019-04-16T03:15:44.690Z,6.83
2019-04-16T03:18:40.979Z,7.10
2019-04-16T03:21:29.777Z,6.77
2019-04-16T03:24:18.327Z,6.30
2019-04-16T03:27:07.054Z,6.53
2019-04-16T03:29:55.802Z,6.13
2019-04-16T03:32:51.538Z,6.93
2019-04-16T03:35:40.195Z,8.50
2019-04-16T03:38:28.348Z,7.03
2019-04-16T03:41:16.699Z,6.50
2019-04-16T03:44:05.627Z,7.23
2019-04-16T03:46:54.254Z,7.37
2019-04-16T03:49:42.600Z,7.40
2019-04-16T03:52:31.941Z,7.77
2019-04-16T03:55:25.277Z,7.30
2019-04-16T03:58:11.087Z,6.27
2019-04-16T04:00:58.989Z,7.17
2019-04-16T04:03:47.336Z,8.00
2019-04-16T04:06:36.505Z,7.13
2019-04-16T04:09:24.836Z,6.20
2019-04-16T04:12:14.187Z,6.60
2019-04-16T04:15:02.694Z,7.33
2019-04-16T04:17:50.183Z,6.80
2019-04-16T04:20:37.981Z,7.30
2019-04-16T04:23:28.703Z,6.33
2019-04-16T04:26:15.286Z,7.20
2019-04-16T04:29:06.043Z,7.33
2019-04-16T04:31:52.663Z,6.80
2019-04-16T04:34:40.775Z,7.43
2019-04-16T04:37:31.249Z,6.37
2019-04-16T04:43:17.702Z,7.73
2019-04-16T04:46:06.502Z,7.40
2019-04-16T04:48:59.845Z,8.90
2019-04-16T04:51:45.166Z,7.20
2019-04-16T04:54:33.334Z,8.80
2019-04-16T04:57:21.758Z,7.20
2019-04-16T05:00:10.730Z,7.97
2019-04-16T05:02:59.746Z,8.50
2019-04-16T05:05:53.319Z,8.30
2019-04-16T05:08:40.936Z,8.13
2019-04-16T05:11:28.363Z,8.63
2019-04-16T05:14:16.713Z,8.93
2019-04-16T05:17:06.528Z,9.00
2019-04-16T05:19:54.089Z,9.30
2019-04-16T05:22:42.003Z,7.37
2019-04-16T05:25:33.273Z,7.43
2019-04-16T05:28:19.247Z,7.67
2019-04-16T05:31:07.465Z,6.83
2019-04-16T05:33:55.028Z,8.13
2019-04-16T05:36:46.609Z,7.77
2019-04-16T05:39:32.904Z,7.77
2019-04-16T05:42:22.431Z,8.20
2019-04-16T05:45:10.606Z,7.50
2019-04-16T05:47:58.919Z,8.20
2019-04-16T05:50:46.819Z,8.60
2019-04-16T05:53:37.350Z,7.97
2019-04-16T05:56:42.290Z,7.50
2019-04-16T05:59:33.588Z,8.37
2019-04-16T06:02:37.342Z,7.70
2019-04-16T06:05:27.973Z,9.37
2019-04-16T06:08:14.104Z,8.10
2019-04-16T06:11:01.489Z,9.03
2019-04-16T06:13:58.447Z,7.80
2019-04-16T06:17:04.235Z,8.57
2019-04-16T06:19:58.082Z,8.10
2019-04-16T06:23:00.631Z,9.10
2019-04-16T06:25:52.615Z,9.07
2019-04-16T06:29:03.362Z,9.27
2019-04-16T06:32:11.858Z,9.20
2019-04-16T06:35:04.275Z,9.27
2019-04-16T06:38:00.022Z,9.17
2019-04-16T06:41:03.356Z,8.03
2019-04-16T06:43:58.374Z,8.57
2019-04-16T06:46:48.944Z,9.20
2019-04-16T06:49:48.186Z,8.90
2019-04-16T06:53:01.142Z,8.00
2019-04-16T06:56:21.049Z,9.00
2019-04-16T06:59:22.371Z,8.93
2019-04-16T07:02:27.889Z,9.40
2019-04-16T07:05:33.005Z,8.83
2019-04-16T07:08:38.081Z,9.40
2019-04-16T07:11:23.842Z,9.53
2019-04-16T07:14:14.792Z,9.20
2019-04-16T07:17:00.979Z,9.47
2019-04-16T07:19:48.864Z,9.40
2019-04-16T07:22:36.622Z,9.53
2019-04-16T07:25:27.385Z,9.97
2019-04-16T07:28:26.500Z,9.33
2019-04-16T07:31:32.981Z,9.00
2019-04-16T07:34:32.635Z,9.83
2019-04-16T07:37:58.026Z,9.13
2019-04-16T07:41:00.770Z,8.87
2019-04-16T07:44:10.741Z,9.40
2019-04-16T07:47:23.312Z,9.90
2019-04-16T07:50:36.721Z,9.93
2019-04-16T07:53:40.241Z,9.53
2019-04-16T07:56:28.248Z,9.23
2019-04-16T07:59:15.952Z,9.80
2019-04-16T08:02:03.475Z,9.77
2019-04-16T08:04:51.494Z,9.70
2019-04-16T08:07:39.640Z,9.47
2019-04-16T08:10:27.563Z,10.77
2019-04-16T08:13:20.201Z,11.07
2019-04-16T08:16:07.660Z,10.23
2019-04-16T08:18:55.279Z,10.03
2019-04-16T08:21:44.307Z,9.67
2019-04-16T08:24:35.463Z,9.00
2019-04-16T08:27:23.548Z,11.17
2019-04-16T08:30:13.804Z,11.33
2019-04-16T08:33:01.700Z,9.33
2019-04-16T08:35:48.946Z,9.90
2019-04-16T08:38:36.499Z,9.80
2019-04-16T08:41:25.004Z,10.00
2019-04-16T08:44:13.201Z,9.63
2019-04-16T08:47:01.536Z,9.27
2019-04-16T08:49:53.768Z,9.43
2019-04-16T08:52:41.666Z,10.70
2019-04-16T08:55:29.325Z,10.90
2019-04-16T08:58:17.286Z,10.13
2019-04-16T09:01:06.251Z,9.50
2019-04-16T09:03:55.227Z,10.67
2019-04-16T09:06:46.359Z,10.20
2019-04-16T09:09:43.946Z,8.70
2019-04-16T09:12:32.342Z,10.23
2019-04-16T09:15:27.130Z,10.47
2019-04-16T09:18:32.734Z,9.57
2019-04-16T09:21:21.204Z,9.47
2019-04-16T09:24:46.766Z,9.67
2019-04-16T09:27:37.762Z,9.50
2019-04-16T09:30:43.500Z,8.90
2019-04-16T09:36:48.756Z,10.50
2019-04-16T09:39:51.822Z,9.47
2019-04-16T09:42:40.276Z,10.03
2019-04-16T09:45:28.944Z,8.77
2019-04-16T09:48:17.279Z,9.77
2019-04-16T09:51:18.675Z,9.83
2019-04-16T09:54:06.400Z,9.40
2019-04-16T09:56:56.768Z,9.67
2019-04-16T09:59:50.101Z,10.30
2019-04-16T10:02:39.028Z,9.97
2019-04-16T10:05:29.571Z,9.30
2019-04-16T10:08:17.383Z,9.23
2019-04-16T10:11:06.581Z,9.77
2019-04-16T10:13:55.403Z,9.70
2019-04-16T10:16:43.597Z,9.00
2019-04-16T10:19:32.063Z,11.13
2019-04-16T10:22:20.102Z,9.90
2019-04-16T10:25:13.014Z,9.47
2019-04-16T10:28:08.026Z,8.60
2019-04-16T10:30:57.761Z,9.73
2019-04-16T10:33:46.590Z,9.07
2019-04-16T10:36:37.981Z,10.73
2019-04-16T10:39:47.447Z,10.00
2019-04-16T10:42:54.950Z,9.57
2019-04-16T10:45:52.245Z,9.50
2019-04-16T10:49:12.026Z,8.20
2019-04-16T10:52:34.361Z,9.90
2019-04-16T10:55:31.236Z,9.17
2019-04-16T10:58:42.426Z,8.83
2019-04-16T11:01:38.234Z,9.17
2019-04-16T11:04:44.795Z,8.47
2019-04-16T11:07:33.543Z,9.03
2019-04-16T11:10:21.724Z,10.00
2019-04-16T11:13:16.578Z,9.03
2019-04-16T11:16:10.824Z,9.70
2019-04-16T11:18:59.128Z,9.37
2019-04-16T11:21:47.869Z,9.10
2019-04-16T11:24:35.871Z,10.20
2019-04-16T11:27:24.801Z,9.13
2019-04-16T11:30:28.560Z,8.60
2019-04-16T11:33:16.903Z,10.30
2019-04-16T11:36:17.333Z,9.90
2019-04-16T11:38:55.398Z,8.93
2019-04-16T11:41:44.696Z,8.97
2019-04-16T11:44:33.860Z,8.13
2019-04-16T11:47:22.770Z,8.70
2019-04-16T11:50:11.315Z,10.93
2019-04-16T11:52:59.800Z,9.87
2019-04-16T11:55:48.787Z,9.40
2019-04-16T11:58:43.573Z,10.13
2019-04-16T12:02:01.207Z,8.43
2019-04-16T12:05:06.832Z,8.63
2019-04-16T12:08:02.491Z,8.73
2019-04-16T12:11:09.725Z,9.80
2019-04-16T12:14:11.254Z,8.50
2019-04-16T12:17:21.916Z,10.37
2019-04-16T12:20:28.796Z,9.63
2019-04-16T12:23:38.966Z,11.17
2019-04-16T12:26:49.288Z,9.57
2019-04-16T12:29:59.591Z,9.43
2019-04-16T12:32:58.928Z,9.87
2019-04-16T12:36:06.262Z,8.17
2019-04-16T12:39:01.125Z,9.67
2019-04-16T12:42:02.784Z,8.07
2019-04-16T12:44:54.482Z,8.27
2019-04-16T12:47:47.790Z,9.33
2019-04-16T12:50:48.021Z,9.13
2019-04-16T12:54:05.142Z,8.07
2019-04-16T12:57:19.047Z,8.60
2019-04-16T13:00:36.905Z,9.60
2019-04-16T13:03:39.841Z,9.33
2019-04-16T13:06:44.934Z,9.33
2019-04-16T13:09:41.959Z,9.93
2019-04-16T13:12:44.482Z,8.67
2019-04-16T13:15:45.834Z,9.13
2019-04-16T13:19:02.759Z,9.73
2019-04-16T13:21:55.105Z,8.50
2019-04-16T13:24:49.944Z,9.40
2019-04-16T13:27:39.234Z,9.90
2019-04-16T13:30:28.368Z,8.80
2019-04-16T13:33:16.850Z,9.40
2019-04-16T13:36:05.895Z,9.00
2019-04-16T13:39:16.571Z,9.53
2019-04-16T13:42:04.759Z,8.23
2019-04-16T13:45:25.939Z,9.27
2019-04-16T13:48:27.467Z,8.77
2019-04-16T13:51:18.981Z,8.73
2019-04-16T13:54:28.108Z,8.97
2019-04-16T13:57:19.260Z,8.57
2019-04-16T14:00:17.931Z,9.90
2019-04-16T14:03:11.050Z,8.80
2019-04-16T14:06:00.263Z,10.37
2019-04-16T14:08:48.969Z,9.50
2019-04-16T14:11:37.154Z,8.97
2019-04-16T14:14:25.841Z,8.90
2019-04-16T14:17:17.981Z,8.50
2019-04-16T14:20:08.693Z,8.80
2019-04-16T14:22:57.560Z,8.40
2019-04-16T14:25:45.813Z,8.77
2019-04-16T14:28:35.267Z,8.80
2019-04-16T14:31:25.369Z,7.83
2019-04-16T14:34:45.156Z,7.67
2019-04-16T14:37:33.984Z,9.43
2019-04-16T14:40:23.173Z,7.97
2019-04-16T14:43:13.679Z,7.37
2019-04-16T14:46:02.419Z,7.43
2019-04-16T14:48:51.065Z,8.00
2019-04-16T14:51:39.172Z,7.30
2019-04-16T14:54:32.867Z,8.70
2019-04-16T14:57:21.718Z,8.60
2019-04-16T15:00:39.259Z,7.13
2019-04-16T15:03:53.149Z,8.37
2019-04-16T15:06:49.187Z,8.07
2019-04-16T15:10:02.444Z,8.10
2019-04-16T15:13:01.644Z,8.20
2019-04-16T15:16:14.202Z,8.17
2019-04-16T15:19:21.211Z,8.13
2019-04-16T15:22:32.106Z,7.23
2019-04-16T15:25:27.699Z,7.77
2019-04-16T15:28:20.113Z,8.03
2019-04-16T15:31:17.241Z,8.70
2019-04-16T15:34:14.527Z,9.00
2019-04-16T15:37:28.138Z,8.60
2019-04-16T15:40:30.543Z,7.80
2019-04-16T15:43:41.478Z,7.50
2019-04-16T15:46:58.718Z,8.20
2019-04-16T15:49:56.042Z,7.70
2019-04-16T15:53:13.230Z,8.13
2019-04-16T15:56:12.083Z,8.10
2019-04-16T15:59:07.636Z,7.83
2019-04-16T16:02:31.739Z,7.80
2019-04-16T16:05:25.871Z,7.10
2019-04-16T16:08:22.462Z,8.73
2019-04-16T16:11:17.672Z,7.90
2019-04-16T16:14:06.087Z,7.33
2019-04-16T16:16:55.135Z,7.73
2019-04-16T16:19:44.087Z,7.50
2019-04-16T16:22:32.794Z,8.03
2019-04-16T16:25:20.611Z,8.27
2019-04-16T16:28:09.031Z,8.57
2019-04-16T16:30:57.344Z,8.07
2019-04-16T16:33:45.411Z,7.27
2019-04-16T16:36:36.319Z,8.37
2019-04-16T16:39:23.086Z,7.87
2019-04-16T16:42:12.432Z,7.00
2019-04-16T16:45:01.617Z,7.80
2019-04-16T16:47:50.480Z,8.00
2019-04-16T16:50:37.936Z,7.73
2019-04-16T16:53:38.674Z,7.17
2019-04-16T16:56:38.848Z,8.03
2019-04-16T16:59:30.298Z,7.33
2019-04-16T17:02:21.532Z,6.17
2019-04-16T17:05:13.460Z,8.60
2019-04-16T17:08:01.310Z,7.17
2019-04-16T17:10:48.922Z,8.40
2019-04-16T17:13:36.519Z,6.83
2019-04-16T17:16:24.107Z,7.77
2019-04-16T17:19:11.922Z,8.00
2019-04-16T17:21:59.323Z,7.53
2019-04-16T17:24:46.783Z,7.40
2019-04-16T17:27:34.366Z,8.50
2019-04-16T17:30:22.183Z,8.70
2019-04-16T17:33:10.027Z,7.70
2019-04-16T17:35:58.456Z,8.37
2019-04-16T17:38:47.009Z,6.90
2019-04-16T17:41:40.066Z,9.10
2019-04-16T17:44:46.530Z,8.33
2019-04-16T17:47:55.808Z,8.17
2019-04-16T17:50:54.508Z,7.00
2019-04-16T17:53:48.252Z,8.07
2019-04-16T17:56:48.651Z,7.10
2019-04-16T17:59:56.066Z,6.93
2019-04-16T18:03:05.438Z,7.60
2019-04-16T18:06:01.900Z,6.83
2019-04-16T18:09:07.583Z,6.40
2019-04-16T18:12:23.427Z,6.67
2019-04-16T18:15:27.180Z,7.20
2019-04-16T18:18:28.946Z,7.33
2019-04-16T18:21:47.907Z,7.30
2019-04-16T18:25:55.453Z,8.07
2019-04-16T18:29:00.538Z,6.40
2019-04-16T18:31:56.422Z,7.73
2019-04-16T18:34:56.491Z,8.40
2019-04-16T18:38:07.624Z,7.73
2019-04-16T18:41:18.549Z,6.00
2019-04-16T18:44:24.803Z,6.53
2019-04-16T18:47:37.978Z,6.17
2019-04-16T18:50:30.180Z,6.47
2019-04-16T18:53:18.689Z,6.43
2019-04-16T18:56:07.427Z,5.53
2019-04-16T18:58:56.081Z,6.97
2019-04-16T19:01:47.494Z,6.33
2019-04-16T19:04:36.914Z,6.30
2019-04-16T19:07:25.192Z,5.80
2019-04-16T19:10:13.893Z,6.70
2019-04-16T19:13:11.209Z,6.07
2019-04-16T19:15:59.368Z,5.80
2019-04-16T19:18:54.065Z,5.43
2019-04-16T19:21:42.526Z,6.70
2019-04-16T19:24:32.253Z,6.50
2019-04-16T19:27:21.209Z,6.40
2019-04-16T19:30:10.565Z,6.40
2019-04-16T19:33:00.791Z,5.73
2019-04-16T19:35:51.878Z,6.10
2019-04-16T19:38:40.682Z,6.10
2019-04-16T19:41:29.391Z,6.27
2019-04-16T19:44:18.560Z,8.03
2019-04-16T19:47:07.378Z,5.97
2019-04-16T19:49:56.502Z,6.50
2019-04-16T19:52:45.857Z,5.73
2019-04-16T19:55:34.602Z,5.80
2019-04-16T19:58:23.008Z,6.60
2019-04-16T20:01:12.398Z,7.80
2019-04-16T20:04:01.303Z,5.53
2019-04-16T20:06:49.045Z,5.80
2019-04-16T20:09:39.216Z,7.00
2019-04-16T20:12:28.800Z,7.07
2019-04-16T20:15:18.476Z,5.70
2019-04-16T20:18:07.929Z,6.13
2019-04-16T20:21:00.333Z,6.50
2019-04-16T20:23:47.298Z,6.47
2019-04-16T20:26:35.629Z,6.33
2019-04-16T20:29:23.579Z,6.67
2019-04-16T20:32:11.874Z,6.00
2019-04-16T20:35:00.568Z,5.47
2019-04-16T20:37:50.387Z,5.47
2019-04-16T20:40:38.679Z,8.13
2019-04-16T20:43:26.808Z,7.70
2019-04-16T20:46:14.753Z,6.20
2019-04-16T20:49:09.282Z,7.40
2019-04-16T20:51:56.467Z,6.50
2019-04-16T20:54:49.629Z,6.30
2019-04-16T20:57:39.212Z,6.00
2019-04-16T21:00:30.263Z,6.07
2019-04-16T21:03:22.306Z,5.80
2019-04-16T21:06:10.090Z,5.87
2019-04-16T21:08:58.958Z,5.30
2019-04-16T21:11:47.837Z,6.67
2019-04-16T21:14:36.336Z,5.97
2019-04-16T21:17:25.403Z,6.40
2019-04-16T21:20:19.370Z,5.37
2019-04-16T21:23:04.093Z,5.97
2019-04-16T21:25:52.632Z,6.23
2019-04-16T21:28:52.951Z,5.97
2019-04-16T21:31:44.412Z,6.07
2019-04-16T21:34:47.995Z,6.40
2019-04-16T21:37:51.592Z,5.73
2019-04-16T21:40:39.899Z,5.50
2019-04-16T21:43:27.835Z,6.70
2019-04-16T21:46:20.167Z,5.37
2019-04-16T21:49:08.300Z,5.90
2019-04-16T21:52:08.943Z,5.87
2019-04-16T21:55:02.472Z,5.97
2019-04-16T21:57:47.951Z,6.23
2019-04-16T22:01:04.072Z,6.80
2019-04-16T22:03:56.754Z,5.97
2019-04-16T22:06:46.006Z,7.23
2019-04-16T22:09:35.070Z,5.67
2019-04-16T22:12:23.197Z,5.47
2019-04-16T22:15:12.255Z,5.37
2019-04-16T22:18:00.957Z,5.20
2019-04-16T22:20:49.242Z,5.80
2019-04-16T22:23:37.459Z,5.93
2019-04-16T22:26:27.195Z,5.33
2019-04-16T22:29:16.436Z,6.27
2019-04-16T22:32:05.420Z,5.70
2019-04-16T22:34:54.122Z,5.83
2019-04-16T22:37:42.933Z,6.27
2019-04-16T22:40:44.226Z,5.77
2019-04-16T22:43:50.347Z,5.33
2019-04-16T22:46:51.291Z,5.63
2019-04-16T22:49:39.709Z,5.87
2019-04-16T22:52:28.706Z,6.33
2019-04-16T22:55:16.835Z,6.10
2019-04-16T22:58:05.365Z,5.63
2019-04-16T23:01:03.596Z,5.47
2019-04-16T23:03:53.322Z,5.40
2019-04-16T23:06:41.761Z,5.63
2019-04-16T23:09:31.036Z,5.30
2019-04-16T23:12:20.074Z,5.63
2019-04-16T23:15:10.745Z,6.13
2019-04-16T23:17:59.036Z,4.83
2019-04-16T23:20:47.018Z,4.87
2019-04-16T23:23:35.327Z,5.43
2019-04-16T23:26:32.151Z,4.93
2019-04-16T23:29:17.010Z,5.93
2019-04-16T23:32:05.759Z,5.50
2019-04-16T23:34:54.671Z,5.63
2019-04-16T23:37:43.451Z,5.63
2019-04-16T23:40:31.674Z,6.53
2019-04-16T23:43:33.630Z,4.47
2019-04-16T23:46:37.752Z,5.50
2019-04-16T23:49:38.554Z,6.00
2019-04-16T23:52:35.338Z,6.77
2019-04-16T23:55:50.295Z,5.50
2019-04-16T23:58:47.223Z,5.90
